Time;durP1;ratioP1;P1;durP2;ratioP2;P2;SDS_P1;SDS_P2;PMS_P1;PMS_P2;Temp;Humidity;BMP_temperature;BMP_pressure;BME280_temperature;BME280_humidity;BME280_pressure;Samples;Min_cycle;Max_cycle;Signal;HPM_P1;HPM_P2
2023/08/20 04:02:12;;;;;;;3.80;3.43;;;24.40;81.50;;;;;;5383364;22;20481;-71
2023/08/20 04:04:39;;;;;;;4.60;4.07;;;24.40;81.60;;;;;;4996282;28;20441;-71
2023/08/20 04:07:05;;;;;;;4.07;3.77;;;24.30;81.60;;;;;;4996229;28;20476;-70
2023/08/20 04:09:33;;;;;;;3.90;3.50;;;24.30;81.70;;;;;;4996069;28;20449;-71
2023/08/20 04:12:00;;;;;;;4.43;4.03;;;24.30;81.60;;;;;;4995746;28;20468;-71
2023/08/20 04:14:26;;;;;;;4.87;3.67;;;24.20;81.90;;;;;;4996032;28;20481;-70
2023/08/20 04:16:53;;;;;;;5.00;4.50;;;24.20;81.90;;;;;;4996707;28;20444;-70
2023/08/20 04:19:21;;;;;;;4.33;3.93;;;24.20;82.10;;;;;;4995966;28;20473;-70
2023/08/20 04:21:48;;;;;;;4.30;4.00;;;24.20;82.00;;;;;;4995827;28;20466;-71
2023/08/20 04:24:14;;;;;;;4.43;4.03;;;24.10;82.20;;;;;;4995529;28;20452;-71
2023/08/20 04:26:42;;;;;;;4.23;3.90;;;24.10;82.30;;;;;;4995821;28;20532;-70
2023/08/20 04:29:08;;;;;;;4.13;3.73;;;24.10;82.10;;;;;;4995408;28;20449;-70
2023/08/20 04:31:35;;;;;;;4.30;3.77;;;24.20;82.10;;;;;;4995340;28;20974;-70
2023/08/20 04:34:02;;;;;;;3.90;3.53;;;24.20;82.20;;;;;;4995367;28;20875;-70
2023/08/20 04:36:30;;;;;;;5.33;4.57;;;24.20;82.30;;;;;;4995667;28;20491;-70
2023/08/20 04:38:56;;;;;;;4.20;3.90;;;24.20;82.30;;;;;;4995611;28;20441;-70
2023/08/20 04:41:23;;;;;;;4.43;4.03;;;24.20;82.40;;;;;;4995509;28;20469;-71
2023/08/20 04:43:50;;;;;;;4.37;4.00;;;24.20;82.30;;;;;;4995168;28;20938;-70
2023/08/20 04:46:16;;;;;;;4.70;4.13;;;24.20;82.30;;;;;;4995452;28;20619;-70
2023/08/20 04:48:43;;;;;;;4.77;4.37;;;24.20;82.10;;;;;;4995053;28;20449;-70
2023/08/20 04:51:10;;;;;;;4.53;4.13;;;24.20;82.20;;;;;;4995011;28;21016;-70
2023/08/20 04:53:38;;;;;;;4.33;3.93;;;24.30;82.20;;;;;;4995066;28;20935;-70
2023/08/20 04:56:05;;;;;;;4.37;3.97;;;24.30;82.30;;;;;;4994910;28;21016;-70
2023/08/20 04:58:31;;;;;;;4.57;4.10;;;24.30;82.20;;;;;;4995218;28;20441;-70
2023/08/20 05:00:58;;;;;;;4.60;4.20;;;24.40;82.40;;;;;;4995003;28;20499;-70
2023/08/20 05:03:26;;;;;;;4.80;3.97;;;24.40;82.40;;;;;;4995111;28;20437;-70
2023/08/20 05:05:53;;;;;;;5.10;4.70;;;24.50;82.30;;;;;;4994738;28;20862;-70
2023/08/20 05:08:19;;;;;;;5.00;4.60;;;24.60;82.30;;;;;;4995011;28;20452;-70
2023/08/20 05:10:47;;;;;;;5.73;5.23;;;24.70;82.10;;;;;;4994931;28;20469;-70
2023/08/20 05:13:14;;;;;;;4.20;3.90;;;24.80;81.90;;;;;;4994918;28;20855;-70
2023/08/20 05:15:41;;;;;;;6.03;4.53;;;24.90;81.80;;;;;;4994459;28;21009;-70
2023/08/20 05:18:07;;;;;;;4.47;4.07;;;24.90;81.90;;;;;;4994841;28;20441;-70
2023/08/20 05:20:34;;;;;;;4.13;3.67;;;25.00;81.80;;;;;;4994711;28;20499;-70
2023/08/20 05:23:01;;;;;;;4.30;3.90;;;25.00;81.60;;;;;;4995017;28;20449;-70
2023/08/20 05:25:28;;;;;;;5.73;4.87;;;24.90;81.10;;;;;;4994785;28;21082;-70
2023/08/20 05:27:55;;;;;;;5.30;4.80;;;24.80;81.50;;;;;;4994583;28;20441;-71
2023/08/20 05:30:22;;;;;;;4.50;4.20;;;24.90;81.20;;;;;;4995088;28;20790;-70
2023/08/20 05:32:49;;;;;;;4.60;4.20;;;25.10;81.20;;;;;;4996505;28;20449;-70
2023/08/20 05:35:16;;;;;;;4.40;4.00;;;25.30;81.00;;;;;;4996345;28;20485;-70
2023/08/20 05:37:42;;;;;;;4.60;3.83;;;25.40;80.90;;;;;;4996390;28;20503;-70
2023/08/20 05:40:10;;;;;;;4.20;3.90;;;25.60;80.80;;;;;;4994698;28;20476;-71
2023/08/20 05:42:37;;;;;;;4.60;4.20;;;25.80;80.70;;;;;;4994337;28;20497;-72
2023/08/20 05:45:06;;;;;;;5.07;4.43;;;26.00;80.50;;;;;;4994862;28;20532;-72
2023/08/20 05:47:33;;;;;;;4.70;4.20;;;26.10;80.10;;;;;;4994587;28;20445;-71
2023/08/20 05:50:06;;;;;;;4.13;3.73;;;26.30;79.40;;;;;;4994436;28;20445;-71
2023/08/20 05:52:33;;;;;;;4.33;3.97;;;26.40;79.00;;;;;;4994347;28;20469;-72
2023/08/20 05:54:59;;;;;;;5.23;4.50;;;26.50;78.70;;;;;;4994137;28;20485;-71
2023/08/20 05:57:26;;;;;;;4.80;4.30;;;26.70;78.50;;;;;;4994249;28;20495;-71
2023/08/20 05:59:53;;;;;;;4.20;3.80;;;26.80;78.30;;;;;;4994000;28;20855;-71
2023/08/20 06:02:21;;;;;;;5.00;4.10;;;27.00;77.90;;;;;;4994233;28;20834;-72
2023/08/20 06:04:48;;;;;;;4.10;3.70;;;27.20;77.70;;;;;;4994804;28;20444;-71
2023/08/20 06:07:14;;;;;;;4.27;3.87;;;27.30;77.00;;;;;;4994848;28;20449;-71
2023/08/20 06:09:41;;;;;;;5.70;4.20;;;27.30;76.30;;;;;;4995117;28;20449;-71
2023/08/20 06:12:08;;;;;;;5.13;4.10;;;27.50;76.60;;;;;;4994276;28;20504;-72
2023/08/20 06:14:35;;;;;;;4.30;3.80;;;27.80;76.40;;;;;;4994683;28;20453;-72
2023/08/20 06:17:02;;;;;;;4.57;4.17;;;28.10;75.80;;;;;;4994558;28;20480;-73
2023/08/20 06:19:30;;;;;;;3.57;3.27;;;28.20;75.00;;;;;;4994429;28;20481;-71
2023/08/20 06:21:57;;;;;;;3.93;3.63;;;28.00;75.60;;;;;;4994535;28;20829;-73
2023/08/20 06:24:24;;;;;;;4.77;4.37;;;27.80;75.80;;;;;;4994286;28;20441;-73
2023/08/20 06:26:50;;;;;;;4.33;3.93;;;27.80;77.10;;;;;;4994456;28;20437;-71
2023/08/20 06:29:17;;;;;;;4.23;3.93;;;28.10;76.20;;;;;;4995369;28;20449;-71
2023/08/20 06:31:44;;;;;;;4.30;4.00;;;28.10;75.20;;;;;;4995436;28;20844;-71
2023/08/20 06:34:11;;;;;;;3.77;3.47;;;28.20;74.90;;;;;;4994421;28;20503;-71
2023/08/20 06:36:39;;;;;;;4.63;4.07;;;28.10;75.20;;;;;;4994022;28;20473;-71
2023/08/20 06:39:06;;;;;;;4.70;4.20;;;28.50;74.70;;;;;;4994027;28;20453;-71
2023/08/20 06:41:33;;;;;;;3.63;3.33;;;28.70;74.40;;;;;;4993832;28;20519;-72
2023/08/20 06:44:00;;;;;;;4.00;3.70;;;28.60;73.90;;;;;;4993869;28;20499;-72
2023/08/20 06:46:26;;;;;;;4.43;3.67;;;28.60;74.90;;;;;;4994247;28;20865;-72
2023/08/20 06:48:53;;;;;;;4.03;3.63;;;28.80;74.10;;;;;;4993940;28;20865;-72
2023/08/20 06:51:21;;;;;;;3.90;3.60;;;29.00;73.60;;;;;;4994248;28;20862;-71
2023/08/20 06:53:50;;;;;;;3.93;3.57;;;29.30;72.70;;;;;;4994273;28;20472;-71
2023/08/20 06:56:16;;;;;;;5.03;4.63;;;29.20;72.50;;;;;;4995680;28;20491;-70
2023/08/20 06:58:43;;;;;;;4.40;4.00;;;28.90;73.10;;;;;;4997496;28;20444;-70
2023/08/20 07:01:12;;;;;;;3.97;3.60;;;28.90;73.40;;;;;;4996952;28;20487;-71
2023/08/20 07:03:40;;;;;;;5.77;4.10;;;29.10;72.60;;;;;;4996929;28;20827;-71
2023/08/20 07:06:09;;;;;;;4.00;3.70;;;29.00;73.40;;;;;;4996910;28;21000;-71
2023/08/20 07:08:36;;;;;;;5.10;3.50;;;29.10;72.80;;;;;;4997168;28;20507;-70
2023/08/20 07:11:04;;;;;;;4.30;4.00;;;29.00;73.00;;;;;;4997114;28;20472;-72
2023/08/20 07:13:31;;;;;;;4.97;4.10;;;29.00;73.30;;;;;;4997247;28;20448;-72
2023/08/20 07:15:57;;;;;;;4.53;3.67;;;28.90;74.20;;;;;;4996903;28;20858;-72
2023/08/20 07:18:24;;;;;;;3.60;3.30;;;28.50;72.90;;;;;;4997282;28;20471;-72
2023/08/20 07:20:52;;;;;;;4.90;4.50;;;28.30;74.70;;;;;;4996907;28;20461;-72
2023/08/20 07:23:19;;;;;;;4.40;4.00;;;28.60;74.50;;;;;;4996949;28;20449;-72
2023/08/20 07:25:46;;;;;;;4.27;3.87;;;29.00;73.70;;;;;;4996923;28;20441;-72
2023/08/20 07:28:14;;;;;;;4.20;3.90;;;29.00;73.90;;;;;;4996515;28;20903;-72
2023/08/20 07:30:41;;;;;;;4.10;3.80;;;29.10;74.20;;;;;;4996461;28;21198;-73
2023/08/20 07:33:08;;;;;;;4.03;3.73;;;29.10;73.70;;;;;;4996720;28;20568;-72
2023/08/20 07:35:35;;;;;;;3.80;3.50;;;29.00;73.30;;;;;;4996725;28;20476;-72
2023/08/20 07:38:02;;;;;;;3.70;3.40;;;28.70;73.70;;;;;;4996666;28;20532;-72
2023/08/20 07:40:29;;;;;;;4.30;3.90;;;29.00;74.10;;;;;;4996642;28;20448;-73
2023/08/20 07:42:56;;;;;;;4.53;4.13;;;29.40;72.60;;;;;;4996588;28;20453;-73
2023/08/20 07:45:24;;;;;;;5.10;3.60;;;29.80;71.40;;;;;;4996603;28;20499;-73
2023/08/20 07:47:50;;;;;;;3.70;3.40;;;30.00;71.20;;;;;;4996473;28;20448;-73
2023/08/20 07:50:17;;;;;;;4.17;3.80;;;30.40;68.70;;;;;;4996513;28;20445;-72
2023/08/20 07:52:44;;;;;;;4.20;3.80;;;30.50;67.90;;;;;;4996425;28;20462;-72
2023/08/20 07:55:10;;;;;;;4.40;3.13;;;30.40;69.30;;;;;;4996342;28;20449;-72
2023/08/20 07:57:37;;;;;;;3.30;3.00;;;30.50;69.80;;;;;;4996336;28;20485;-71
2023/08/20 08:00:04;;;;;;;6.70;3.00;;;30.70;68.30;;;;;;4996465;28;20465;-73
2023/08/20 08:02:33;;;;;;;4.17;3.77;;;30.80;67.90;;;;;;4995892;28;20508;-72
2023/08/20 08:04:59;;;;;;;4.60;3.83;;;31.10;67.50;;;;;;4996193;28;20452;-72
2023/08/20 08:07:26;;;;;;;3.77;3.47;;;31.40;65.70;;;;;;4995957;28;20441;-73
2023/08/20 08:09:53;;;;;;;3.80;3.50;;;31.60;64.80;;;;;;4995841;28;20821;-74
2023/08/20 08:12:20;;;;;;;4.40;4.00;;;31.90;64.90;;;;;;4995928;28;20985;-74
2023/08/20 08:14:46;;;;;;;3.67;3.30;;;31.60;65.10;;;;;;4996259;28;20547;-74
2023/08/20 08:17:13;;;;;;;3.87;3.33;;;31.20;66.10;;;;;;4995981;28;20477;-74
2023/08/20 08:19:41;;;;;;;4.53;3.50;;;30.80;66.60;;;;;;4996079;28;20449;-74
2023/08/20 08:22:08;;;;;;;4.37;4.03;;;30.80;68.10;;;;;;4995946;28;20469;-73
2023/08/20 08:24:35;;;;;;;4.20;3.90;;;30.80;68.10;;;;;;4996111;28;20445;-73
2023/08/20 08:27:01;;;;;;;3.83;3.30;;;30.60;68.90;;;;;;4995934;28;20449;-74
2023/08/20 08:29:28;;;;;;;3.67;3.13;;;30.80;69.20;;;;;;4995816;28;20449;-70
2023/08/20 08:31:55;;;;;;;4.03;3.73;;;30.90;68.40;;;;;;4995631;28;20472;-72
2023/08/20 08:34:21;;;;;;;3.77;3.47;;;30.80;68.30;;;;;;4995645;28;20445;-71
2023/08/20 08:36:49;;;;;;;5.67;4.00;;;30.90;68.30;;;;;;4995526;28;20477;-74
2023/08/20 08:39:16;;;;;;;4.20;3.90;;;31.00;69.10;;;;;;4995943;28;20456;-73
2023/08/20 08:41:43;;;;;;;3.60;3.30;;;31.20;67.90;;;;;;4995449;28;20465;-73
2023/08/20 08:44:10;;;;;;;3.50;3.20;;;31.10;66.80;;;;;;4995591;28;20452;-73
2023/08/20 08:46:39;;;;;;;3.30;3.00;;;30.80;68.00;;;;;;4995786;28;20445;-72
2023/08/20 08:49:08;;;;;;;3.37;2.93;;;30.90;68.60;;;;;;4995763;28;20445;-73
2023/08/20 08:51:36;;;;;;;3.63;3.33;;;30.70;68.40;;;;;;4995625;28;20508;-73
2023/08/20 08:54:05;;;;;;;5.13;4.03;;;30.80;70.50;;;;;;4995556;28;20453;-73
2023/08/20 08:56:32;;;;;;;3.73;3.43;;;30.90;68.20;;;;;;4995597;28;20508;-73
2023/08/20 08:58:59;;;;;;;3.40;3.10;;;30.80;69.10;;;;;;4995739;28;20445;-73
2023/08/20 09:01:26;;;;;;;3.70;3.10;;;30.50;69.60;;;;;;4995531;28;20921;-73
2023/08/20 09:03:53;;;;;;;3.80;3.50;;;30.60;69.50;;;;;;4995824;28;20826;-73
2023/08/20 09:06:20;;;;;;;4.13;3.83;;;30.80;67.50;;;;;;4995635;28;20938;-73
2023/08/20 09:08:47;;;;;;;3.60;3.30;;;30.70;67.30;;;;;;4995614;28;20930;-73
2023/08/20 09:11:15;;;;;;;4.10;3.80;;;30.70;68.50;;;;;;4995411;28;20477;-73
2023/08/20 09:13:43;;;;;;;5.00;3.80;;;30.50;67.30;;;;;;4995391;28;20476;-73
2023/08/20 09:16:11;;;;;;;4.23;3.70;;;30.40;67.00;;;;;;4995715;28;20572;-73
2023/08/20 09:18:42;;;;;;;3.97;3.63;;;30.50;68.00;;;;;;4994580;28;20445;-73
2023/08/20 09:21:09;;;;;;;3.60;3.30;;;30.60;68.20;;;;;;4995587;28;20469;-73
2023/08/20 09:23:37;;;;;;;4.27;3.47;;;30.80;67.30;;;;;;4995038;28;20975;-73
2023/08/20 09:26:04;;;;;;;4.20;3.90;;;31.00;66.10;;;;;;4995531;28;20452;-73
2023/08/20 09:28:42;;;;;;;4.37;3.97;;;31.10;66.50;;;;;;4995222;28;20441;-73
2023/08/20 09:31:08;;;;;;;4.73;3.60;;;31.10;68.40;;;;;;4995044;28;20522;-73
2023/08/20 09:33:35;;;;;;;3.73;3.43;;;31.20;65.10;;;;;;4994940;28;20457;-73
2023/08/20 09:36:04;;;;;;;3.80;3.50;;;30.90;64.70;;;;;;4995184;28;20456;-73
2023/08/20 09:38:30;;;;;;;3.60;3.30;;;30.80;65.70;;;;;;4994940;28;20441;-72
2023/08/20 09:40:58;;;;;;;3.70;3.40;;;30.80;65.60;;;;;;4994961;28;20465;-73
2023/08/20 09:43:28;;;;;;;3.33;3.03;;;30.90;66.70;;;;;;4994861;28;20523;-73
2023/08/20 09:45:57;;;;;;;3.70;3.40;;;30.90;65.40;;;;;;4994800;28;20441;-73
2023/08/20 09:48:28;;;;;;;4.30;3.10;;;30.80;64.90;;;;;;4994832;28;20436;-73
2023/08/20 09:50:59;;;;;;;3.27;3.03;;;30.70;63.80;;;;;;4994974;28;20519;-73
2023/08/20 09:53:31;;;;;;;4.03;3.63;;;30.60;64.90;;;;;;4994830;28;20429;-73
2023/08/20 09:56:04;;;;;;;4.60;4.10;;;30.70;66.00;;;;;;4994579;28;20425;-73
2023/08/20 09:58:32;;;;;;;3.10;2.80;;;31.00;65.50;;;;;;4995027;28;20425;-73
2023/08/20 10:01:01;;;;;;;3.20;2.90;;;31.20;65.40;;;;;;4994445;28;20477;-73
2023/08/20 10:03:28;;;;;;;6.30;3.80;;;31.40;63.80;;;;;;4994544;28;20484;-72
2023/08/20 10:05:57;;;;;;;3.90;3.60;;;31.60;62.30;;;;;;4994623;28;20456;-73
2023/08/20 10:08:24;;;;;;;3.37;3.07;;;31.60;63.60;;;;;;4994732;28;20445;-72
2023/08/20 10:10:51;;;;;;;3.97;3.20;;;31.90;63.40;;;;;;4995221;28;20480;-72
2023/08/20 10:13:18;;;;;;;3.43;3.03;;;31.80;60.60;;;;;;4994929;28;20445;-72
2023/08/20 10:15:54;;;;;;;3.50;3.20;;;31.60;63.20;;;;;;4995382;28;20449;-73
2023/08/20 10:18:23;;;;;;;3.10;2.77;;;31.60;62.00;;;;;;4995188;28;20555;-73
2023/08/20 10:20:51;;;;;;;4.47;3.10;;;31.30;63.70;;;;;;4996891;28;20848;-73
2023/08/20 10:23:22;;;;;;;4.00;3.60;;;31.40;64.30;;;;;;4996256;28;20512;-72
2023/08/20 10:25:49;;;;;;;3.80;3.50;;;31.40;62.50;;;;;;4996768;28;20444;-71
2023/08/20 10:28:22;;;;;;;4.30;3.37;;;31.40;62.70;;;;;;4995662;28;20437;-72
2023/08/20 10:31:05;;;;;;;3.40;3.10;;;31.30;62.70;;;;;;4999712;28;20840;-73
2023/08/20 10:33:35;;;;;;;2.97;2.77;;;31.00;62.60;;;;;;5000369;28;20825;-72
2023/08/20 10:36:09;;;;;;;3.37;3.00;;;31.10;64.30;;;;;;5001643;28;20500;-73
2023/08/20 10:38:37;;;;;;;3.83;2.90;;;31.20;63.80;;;;;;5001138;28;20416;-72
2023/08/20 10:41:07;;;;;;;3.93;2.70;;;31.50;62.40;;;;;;5001011;28;20993;-72
2023/08/20 10:43:35;;;;;;;3.93;3.53;;;31.80;62.70;;;;;;5001018;28;20436;-72
2023/08/20 10:46:19;;;;;;;4.10;3.20;;;32.00;61.90;;;;;;5001402;28;20450;-72
2023/08/20 10:48:51;;;;;;;3.40;3.10;;;32.30;62.20;;;;;;5000122;28;20429;-72
2023/08/20 10:51:19;;;;;;;3.17;2.87;;;32.50;60.70;;;;;;5000754;28;21040;-73
2023/08/20 10:54:03;;;;;;;3.73;3.40;;;32.50;61.50;;;;;;4999610;28;20449;-73
2023/08/20 10:56:43;;;;;;;2.70;2.50;;;32.30;61.90;;;;;;5000627;28;20533;-73
2023/08/20 10:59:13;;;;;;;4.50;3.03;;;32.50;60.40;;;;;;4999571;28;20449;-73
2023/08/20 11:01:41;;;;;;;3.60;3.00;;;32.70;60.50;;;;;;4999938;28;20480;-73
2023/08/20 11:04:10;;;;;;;3.80;3.40;;;32.90;61.70;;;;;;4999677;28;20453;-72
2023/08/20 11:06:37;;;;;;;3.10;2.90;;;32.70;61.10;;;;;;4999214;28;20440;-72
2023/08/20 11:09:18;;;;;;;3.30;2.90;;;32.90;60.80;;;;;;5000547;28;20500;-72
2023/08/20 11:11:45;;;;;;;3.57;3.20;;;33.10;59.40;;;;;;5000019;28;20461;-72
2023/08/20 11:14:14;;;;;;;3.80;3.07;;;33.20;61.30;;;;;;4999587;28;20452;-72
2023/08/20 11:16:42;;;;;;;3.47;3.17;;;33.10;61.50;;;;;;5000749;28;20531;-72
2023/08/20 11:19:11;;;;;;;4.90;3.23;;;33.30;59.60;;;;;;4999282;28;20961;-72
2023/08/20 11:21:39;;;;;;;3.67;3.37;;;33.10;58.30;;;;;;5000869;28;20527;-73
2023/08/20 11:24:07;;;;;;;3.57;3.27;;;33.00;60.70;;;;;;5001252;28;20475;-73
2023/08/20 11:26:35;;;;;;;3.63;3.20;;;33.10;61.60;;;;;;5001314;28;20453;-73
2023/08/20 11:29:02;;;;;;;3.27;2.70;;;33.30;60.60;;;;;;4998327;28;20833;-72
2023/08/20 11:31:30;;;;;;;3.13;2.90;;;33.10;60.40;;;;;;4998499;28;20531;-72
2023/08/20 11:33:58;;;;;;;3.90;3.17;;;33.10;61.20;;;;;;5000449;28;20453;-72
2023/08/20 11:36:26;;;;;;;2.90;2.60;;;33.00;60.70;;;;;;4999524;28;20448;-72
2023/08/20 11:38:53;;;;;;;3.57;3.27;;;32.40;61.10;;;;;;5000953;28;20453;-72
2023/08/20 11:41:21;;;;;;;3.50;3.20;;;32.20;61.90;;;;;;5000880;28;20508;-72
2023/08/20 11:43:47;;;;;;;3.67;3.37;;;32.50;61.50;;;;;;5001960;28;20456;-72
2023/08/20 11:46:15;;;;;;;3.00;2.70;;;32.90;61.00;;;;;;5000054;28;20456;-72
2023/08/20 11:49:00;;;;;;;3.50;3.10;;;32.80;59.80;;;;;;5001222;28;20449;-72
2023/08/20 11:51:28;;;;;;;3.30;3.00;;;33.00;60.50;;;;;;4999961;28;20503;-72
2023/08/20 11:53:55;;;;;;;3.40;3.10;;;33.30;60.50;;;;;;4998851;28;20515;-72
2023/08/20 11:56:21;;;;;;;3.70;3.23;;;33.20;59.90;;;;;;5000313;28;20449;-73
2023/08/20 11:58:51;;;;;;;3.73;3.43;;;33.20;59.50;;;;;;4999530;28;20514;-72
2023/08/20 12:01:18;;;;;;;4.93;3.37;;;33.20;60.50;;;;;;5000055;28;20472;-72
2023/08/20 12:03:45;;;;;;;3.70;3.40;;;33.50;58.60;;;;;;4998926;28;20449;-72
2023/08/20 12:06:20;;;;;;;3.40;3.10;;;33.50;59.90;;;;;;5001259;28;20449;-72
2023/08/20 12:08:48;;;;;;;3.53;3.23;;;33.70;58.40;;;;;;5003205;28;20477;-73
2023/08/20 12:11:15;;;;;;;3.40;3.10;;;33.80;58.60;;;;;;5004048;28;20473;-72
2023/08/20 12:13:42;;;;;;;4.53;3.07;;;34.00;58.30;;;;;;5004032;28;20453;-73
2023/08/20 12:16:08;;;;;;;3.03;2.77;;;34.10;58.00;;;;;;5011090;28;20449;-73
2023/08/20 12:18:35;;;;;;;4.00;3.37;;;34.20;57.70;;;;;;5003556;28;20492;-71
2023/08/20 12:21:02;;;;;;;3.50;3.20;;;34.10;58.10;;;;;;5009954;28;20488;-72
2023/08/20 12:23:29;;;;;;;3.60;3.30;;;34.00;58.20;;;;;;5012822;28;20516;-73
2023/08/20 12:25:57;;;;;;;3.33;3.03;;;34.10;57.40;;;;;;5009798;28;20468;-73
2023/08/20 12:28:26;;;;;;;3.53;3.23;;;33.90;58.40;;;;;;5007331;28;20445;-73
2023/08/20 12:30:52;;;;;;;3.90;3.30;;;34.00;57.90;;;;;;5003894;28;20465;-73
2023/08/20 12:33:20;;;;;;;2.90;2.70;;;33.90;56.80;;;;;;5007447;28;20484;-72
2023/08/20 12:35:47;;;;;;;4.30;3.13;;;33.90;59.00;;;;;;5007675;28;20455;-73
2023/08/20 12:38:14;;;;;;;3.50;2.97;;;34.00;58.60;;;;;;5005569;28;20492;-72
2023/08/20 12:40:40;;;;;;;3.70;3.40;;;33.90;58.10;;;;;;5000527;28;20774;-73
2023/08/20 12:43:08;;;;;;;3.47;3.17;;;34.00;58.00;;;;;;4996779;28;20800;-72
2023/08/20 12:45:35;;;;;;;3.60;3.30;;;34.20;57.60;;;;;;4996587;28;20816;-73
2023/08/20 12:48:02;;;;;;;3.50;3.20;;;34.60;56.50;;;;;;4996164;28;20922;-73
2023/08/20 12:50:29;;;;;;;3.57;3.10;;;34.90;55.70;;;;;;4996622;28;20455;-73
2023/08/20 12:52:55;;;;;;;2.90;2.60;;;35.20;56.30;;;;;;4996493;28;20457;-73
2023/08/20 12:55:23;;;;;;;3.90;3.40;;;35.30;56.50;;;;;;4997070;28;20445;-73
2023/08/20 12:57:54;;;;;;;3.80;2.87;;;35.20;54.80;;;;;;4997335;28;20484;-73
2023/08/20 13:00:24;;;;;;;3.10;2.80;;;35.10;55.40;;;;;;4996509;28;20535;-72
2023/08/20 13:02:52;;;;;;;3.70;3.10;;;35.30;54.90;;;;;;4996632;28;20493;-73
2023/08/20 13:05:19;;;;;;;3.40;3.10;;;35.10;55.10;;;;;;4996229;28;20449;-73
2023/08/20 13:07:47;;;;;;;3.60;3.03;;;34.90;55.70;;;;;;4996075;28;20448;-73
2023/08/20 13:10:14;;;;;;;3.77;3.37;;;34.40;56.60;;;;;;4996494;28;20449;-73
2023/08/20 13:12:42;;;;;;;3.53;3.23;;;34.40;55.30;;;;;;4996075;28;20480;-72
2023/08/20 13:15:10;;;;;;;3.47;3.13;;;34.70;56.20;;;;;;4995715;28;20441;-73
2023/08/20 13:17:39;;;;;;;3.63;3.00;;;35.00;55.80;;;;;;4997080;28;20572;-73
2023/08/20 13:20:08;;;;;;;3.67;3.13;;;35.20;55.50;;;;;;4995491;28;20445;-73
2023/08/20 13:22:35;;;;;;;2.80;2.50;;;35.40;54.50;;;;;;4995420;28;20538;-74
2023/08/20 13:25:01;;;;;;;3.60;2.80;;;35.40;54.80;;;;;;4995413;28;20499;-73
2023/08/20 13:27:28;;;;;;;3.57;3.27;;;35.10;54.00;;;;;;4995222;28;20794;-73
2023/08/20 13:29:55;;;;;;;4.47;2.60;;;35.10;55.40;;;;;;4994780;28;20441;-74
2023/08/20 13:32:21;;;;;;;4.97;2.57;;;35.30;54.20;;;;;;4994243;28;20848;-74
2023/08/20 13:34:50;;;;;;;3.30;2.80;;;35.40;54.60;;;;;;4994696;28;20444;-74
2023/08/20 13:37:17;;;;;;;3.07;2.60;;;35.50;53.10;;;;;;4994931;28;20444;-72
2023/08/20 13:39:43;;;;;;;3.43;3.13;;;35.50;54.60;;;;;;4994503;28;20487;-73
2023/08/20 13:42:10;;;;;;;3.30;2.97;;;35.60;54.50;;;;;;4994341;28;20471;-73
2023/08/20 13:44:37;;;;;;;3.10;2.50;;;35.90;53.40;;;;;;4994679;28;20531;-72
2023/08/20 13:47:04;;;;;;;3.07;2.77;;;36.00;53.30;;;;;;4994247;28;20858;-73
2023/08/20 13:49:30;;;;;;;3.47;2.90;;;36.20;52.30;;;;;;4994196;28;20441;-73
2023/08/20 13:51:58;;;;;;;2.90;2.53;;;36.10;50.90;;;;;;4994898;28;20468;-73
2023/08/20 13:54:25;;;;;;;4.03;2.57;;;35.90;52.70;;;;;;4994979;28;20448;-72
2023/08/20 13:56:52;;;;;;;3.10;2.63;;;35.90;52.90;;;;;;4996205;28;20452;-73
2023/08/20 13:59:18;;;;;;;2.90;2.40;;;36.00;52.90;;;;;;4996145;28;20547;-73
2023/08/20 14:01:45;;;;;;;2.80;2.60;;;36.20;51.90;;;;;;4996743;28;20476;-73
2023/08/20 14:04:12;;;;;;;3.03;2.73;;;36.10;51.90;;;;;;4996360;28;20476;-73
2023/08/20 14:06:38;;;;;;;6.23;2.73;;;36.00;52.80;;;;;;4995388;28;20503;-73
2023/08/20 14:09:06;;;;;;;3.40;3.10;;;36.40;52.40;;;;;;4997219;28;20440;-74
2023/08/20 14:11:33;;;;;;;2.90;2.53;;;36.60;52.30;;;;;;4999223;28;20499;-73
2023/08/20 14:14:00;;;;;;;3.17;2.87;;;36.30;51.70;;;;;;4996665;28;20448;-73
2023/08/20 14:16:26;;;;;;;2.77;2.57;;;36.40;52.00;;;;;;4998301;28;20499;-73
2023/08/20 14:18:53;;;;;;;2.70;2.50;;;36.50;52.50;;;;;;4996711;28;20512;-73
2023/08/20 14:21:21;;;;;;;4.07;2.93;;;36.80;51.60;;;;;;4998599;28;20465;-74
2023/08/20 14:23:47;;;;;;;2.60;2.40;;;36.70;51.30;;;;;;4998835;28;20473;-74
2023/08/20 14:26:16;;;;;;;2.90;2.70;;;36.50;51.80;;;;;;4997137;28;20448;-74
2023/08/20 14:28:43;;;;;;;2.70;2.43;;;36.40;52.40;;;;;;5001317;28;20491;-74
2023/08/20 14:31:10;;;;;;;3.10;2.43;;;36.30;52.30;;;;;;4999093;28;20503;-74
2023/08/20 14:33:37;;;;;;;4.60;2.50;;;36.20;53.10;;;;;;4997366;28;20499;-74
2023/08/20 14:36:04;;;;;;;7.53;2.60;;;36.10;53.30;;;;;;4996511;28;20451;-73
2023/08/20 14:38:31;;;;;;;4.13;2.80;;;35.90;53.20;;;;;;4995143;28;20548;-73
2023/08/20 14:41:00;;;;;;;2.87;2.50;;;35.80;54.40;;;;;;4997066;28;20839;-74
2023/08/20 14:43:29;;;;;;;2.70;2.50;;;35.80;53.70;;;;;;4997359;28;20458;-74
2023/08/20 14:45:56;;;;;;;2.70;2.50;;;35.70;53.40;;;;;;4996564;28;20452;-73
2023/08/20 14:48:23;;;;;;;3.20;2.90;;;35.70;54.70;;;;;;4996867;28;20967;-73
2023/08/20 14:50:50;;;;;;;2.67;2.47;;;35.50;55.00;;;;;;4998613;28;20472;-73
2023/08/20 14:53:17;;;;;;;2.70;2.50;;;35.30;56.60;;;;;;4998711;28;20448;-73
2023/08/20 14:55:44;;;;;;;2.63;2.33;;;35.10;54.90;;;;;;4996588;28;20484;-73
2023/08/20 14:58:11;;;;;;;2.93;2.50;;;34.80;55.80;;;;;;4996179;28;20487;-73
2023/08/20 15:00:39;;;;;;;2.97;2.63;;;34.60;55.70;;;;;;4995296;28;20451;-73
2023/08/20 15:03:06;;;;;;;3.20;2.60;;;34.50;56.30;;;;;;4996213;28;20445;-74
2023/08/20 15:05:33;;;;;;;2.80;2.40;;;34.40;55.80;;;;;;4997072;28;20444;-74
2023/08/20 15:07:59;;;;;;;3.27;2.50;;;34.30;56.20;;;;;;4996654;28;20452;-74
2023/08/20 15:10:27;;;;;;;2.60;2.40;;;34.30;55.90;;;;;;4996189;28;20441;-74
2023/08/20 15:12:53;;;;;;;3.60;2.80;;;34.30;55.90;;;;;;4995106;28;20460;-73
2023/08/20 15:15:21;;;;;;;2.80;2.60;;;34.30;56.90;;;;;;4996513;28;20487;-73
2023/08/20 15:17:50;;;;;;;3.47;2.73;;;34.30;56.40;;;;;;5000432;28;20455;-73
2023/08/20 15:20:16;;;;;;;2.97;2.37;;;34.50;56.20;;;;;;4999662;28;20534;-74
2023/08/20 15:22:43;;;;;;;4.70;2.33;;;34.50;55.30;;;;;;5001674;28;20464;-74
2023/08/20 15:25:10;;;;;;;3.87;2.73;;;34.50;56.00;;;;;;5000303;28;20449;-73
2023/08/20 15:27:37;;;;;;;3.30;2.43;;;34.50;55.10;;;;;;5000271;28;20483;-74
2023/08/20 15:30:06;;;;;;;4.30;2.27;;;34.50;55.20;;;;;;4998928;28;20448;-74
2023/08/20 15:32:33;;;;;;;2.50;2.23;;;34.80;54.50;;;;;;5000198;28;20500;-73
2023/08/20 15:35:02;;;;;;;2.60;2.30;;;35.60;53.20;;;;;;5001128;28;20455;-74
2023/08/20 15:37:29;;;;;;;4.27;2.23;;;36.80;51.10;;;;;;5000896;28;20510;-73
2023/08/20 15:39:56;;;;;;;2.57;2.30;;;37.60;49.50;;;;;;4999213;28;20863;-73
2023/08/20 15:42:23;;;;;;;2.30;2.10;;;37.60;49.20;;;;;;5000147;28;20473;-74
2023/08/20 15:44:49;;;;;;;2.40;2.20;;;37.10;49.30;;;;;;5000265;28;20455;-74
2023/08/20 15:47:16;;;;;;;3.30;2.37;;;36.60;50.00;;;;;;4998881;28;20456;-73
2023/08/20 15:49:42;;;;;;;2.40;2.10;;;36.20;51.40;;;;;;4999296;28;20449;-73
2023/08/20 15:52:10;;;;;;;3.23;2.40;;;36.00;51.30;;;;;;4997492;28;20465;-73
2023/08/20 15:54:37;;;;;;;3.07;2.20;;;35.70;52.40;;;;;;5000706;28;20800;-73
2023/08/20 15:57:04;;;;;;;2.30;2.10;;;35.40;52.70;;;;;;4999057;28;20871;-74
2023/08/20 15:59:31;;;;;;;4.13;2.27;;;35.10;53.00;;;;;;4998177;28;20477;-74
2023/08/20 16:01:58;;;;;;;2.43;2.23;;;34.80;53.70;;;;;;4997599;28;20489;-73
2023/08/20 16:04:25;;;;;;;2.57;2.37;;;34.60;54.10;;;;;;4997707;28;20459;-73
2023/08/20 16:06:51;;;;;;;4.07;2.20;;;34.40;53.40;;;;;;5001369;28;20453;-74
2023/08/20 16:09:19;;;;;;;3.77;2.50;;;34.20;54.00;;;;;;5001812;28;20452;-73
2023/08/20 16:11:46;;;;;;;3.60;2.13;;;34.00;54.60;;;;;;5000739;28;20464;-74
2023/08/20 16:14:13;;;;;;;3.77;2.70;;;33.90;54.80;;;;;;5000398;28;20950;-74
2023/08/20 16:16:40;;;;;;;3.03;2.27;;;33.70;55.60;;;;;;5000712;28;20874;-74
2023/08/20 16:19:06;;;;;;;3.53;2.23;;;33.50;55.90;;;;;;4999080;28;21018;-73
2023/08/20 16:21:33;;;;;;;3.27;2.30;;;33.40;56.80;;;;;;4998772;28;20592;-73
2023/08/20 16:24:00;;;;;;;5.80;2.47;;;33.40;56.10;;;;;;4999806;28;20461;-73
2023/08/20 16:26:28;;;;;;;3.17;2.67;;;33.30;56.30;;;;;;4999480;28;20450;-73
2023/08/20 16:28:54;;;;;;;3.13;2.23;;;33.20;56.90;;;;;;4995793;28;20437;-73
2023/08/20 16:31:21;;;;;;;3.30;2.87;;;33.00;57.00;;;;;;4995609;28;20491;-73
2023/08/20 16:33:48;;;;;;;3.20;2.53;;;32.90;57.20;;;;;;4995540;28;20452;-73
2023/08/20 16:36:14;;;;;;;2.80;2.20;;;33.00;57.40;;;;;;4996070;28;20495;-73
2023/08/20 16:38:41;;;;;;;3.10;2.30;;;33.00;57.10;;;;;;4995132;28;21002;-72
2023/08/20 16:41:08;;;;;;;2.63;2.20;;;33.00;57.20;;;;;;4995042;28;20871;-73
2023/08/20 16:43:36;;;;;;;2.33;2.10;;;33.00;57.00;;;;;;4995075;28;20964;-73
2023/08/20 16:46:02;;;;;;;2.43;2.20;;;32.90;57.70;;;;;;4995065;28;20997;-73
2023/08/20 16:48:30;;;;;;;2.80;2.20;;;32.90;58.00;;;;;;4995159;28;20906;-72
2023/08/20 16:50:57;;;;;;;2.87;2.17;;;32.80;57.80;;;;;;4994944;28;20982;-72